Farwell, Texas
Current Conditions -  °F | °C
As of 10:15 AM on Monday 24 Nov 2014 (Local Time) from KCVN Reporting Station
Clear Clear  
Wind Chill: 35°   Ceiling: Unl
Heat Index: 41°   Visibility: 10mi
Dew Point: 18°   Wind: 10mph
Humidity: 39%   Direction: 280°W
Pressure: 30.07"   Gusts: NA
Location:  34.38°N, 103.04°W
Report Text: KCVN 241615Z 28009KT 10SM CLR 05/M08 A3007 RMK AO1
Loading
Personal Weather Stations






























Interactive Weather Map New forecast layout! Learn more

10-Day Weather Forecast

Advertisements
Track Severe Weather on mobile